Savannah, Minnesota
Current Conditions -  °F | °C
As of 9:55 AM on Friday 31 Oct 2014 (Local Time) from KGPZ Reporting Station
Clear Clear  
Wind Chill: 18°   Ceiling: Unl
Heat Index: 27°   Visibility: 10mi
Dew Point: 16°   Wind: 8mph
Humidity: 64%   Direction: 10°N
Pressure: 30.56"   Gusts: NA
Location:  47.3121°N, 93.3823°W
Report Text: KGPZ 311455Z AUTO 01007KT 10SM CLR M03/M09 A3056 RMK AO1 52010
Loading
Personal Weather Stations






























Interactive Weather Map
Tropical Storm Tracking
New forecast layout! Learn more

10-Day Weather Forecast

Advertisements
Track Severe Weather on mobile